Time;durP1;ratioP1;P1;durP2;ratioP2;P2;SDS_P1;SDS_P2;PMS_P1;PMS_P2;Temp;Humidity;BMP_temperature;BMP_pressure;BME280_temperature;BME280_humidity;BME280_pressure;Samples;Min_cycle;Max_cycle;Signal;HPM_P1;HPM_P2
2023/05/28 00:01:54;;;;;;;7.57;4.93;;;;;;;;;;4996593;28;20034;-77
2023/05/28 00:04:21;;;;;;;9.88;5.57;;;;;;;;;;4972553;28;20027;-77
2023/05/28 00:06:48;;;;;;;9.32;5.25;;;;;;;;;;4996087;28;20036;-77
2023/05/28 00:09:14;;;;;;;11.10;5.70;;;;;;;;;;4992715;28;20028;-77
2023/05/28 00:11:40;;;;;;;10.00;5.13;;;;;;;;;;4997927;28;20467;-77
2023/05/28 00:14:05;;;;;;;10.52;5.20;;;;;;;;;;4976343;28;20380;-77
2023/05/28 00:16:31;;;;;;;12.85;6.70;;;;;;;;;;4994865;28;20467;-77
2023/05/28 00:18:56;;;;;;;13.10;6.30;;;;;;;;;;4996483;28;20101;-77
2023/05/28 00:21:21;;;;;;;8.45;5.50;;;;;;;;;;4997379;28;20060;-77
2023/05/28 00:23:47;;;;;;;11.13;6.63;;;;;;;;;;4981287;28;20038;-77
2023/05/28 00:26:12;;;;;;;13.10;5.93;;;;;;;;;;4996774;28;20029;-77
2023/05/28 00:28:38;;;;;;;10.07;5.97;;;;;;;;;;4999457;28;20372;-77
2023/05/28 00:31:03;;;;;;;13.30;5.45;;;;;;;;;;5001505;28;20031;-77
2023/05/28 00:33:28;;;;;;;10.77;5.30;;;;;;;;;;5004297;28;20106;-77
2023/05/28 00:35:55;;;;;;;9.70;5.75;;;;;;;;;;5008123;28;20450;-76
2023/05/28 00:38:21;;;;;;;10.80;5.95;;;;;;;;;;5007350;28;20029;-77
2023/05/28 00:40:47;;;;;;;9.45;5.40;;;;;;;;;;4986359;28;20387;-77
2023/05/28 00:43:12;;;;;;;11.27;5.38;;;;;;;;;;4994326;28;20038;-77
2023/05/28 00:45:37;;;;;;;9.48;4.90;;;;;;;;;;4995377;28;20038;-77
2023/05/28 00:48:03;;;;;;;12.10;5.53;;;;;;;;;;4984172;28;20022;-77
2023/05/28 00:50:28;;;;;;;8.77;5.25;;;;;;;;;;4981151;28;20065;-76
2023/05/28 00:52:55;;;;;;;8.80;5.30;;;;;;;;;;4979046;28;20034;-76
2023/05/28 00:55:21;;;;;;;10.25;5.40;;;;;;;;;;4983848;28;20074;-77
2023/05/28 00:57:53;;;;;;;7.85;5.05;;;;;;;;;;4988680;28;20022;-76
2023/05/28 01:00:18;;;;;;;10.82;5.47;;;;;;;;;;4979337;28;20169;-77
2023/05/28 01:02:44;;;;;;;8.13;5.13;;;;;;;;;;4994550;28;20112;-77
2023/05/28 01:05:09;;;;;;;10.15;5.25;;;;;;;;;;4974809;28;20033;-76
2023/05/28 01:07:35;;;;;;;11.85;4.97;;;;;;;;;;4987209;28;20033;-77
2023/05/28 01:10:02;;;;;;;12.63;4.82;;;;;;;;;;4981323;28;20035;-77
2023/05/28 01:12:28;;;;;;;9.40;5.20;;;;;;;;;;4984399;28;20390;-77
2023/05/28 01:14:54;;;;;;;10.10;4.80;;;;;;;;;;4972447;28;20467;-76
2023/05/28 01:17:20;;;;;;;11.43;5.10;;;;;;;;;;4972138;28;20030;-77
2023/05/28 01:19:47;;;;;;;9.43;4.70;;;;;;;;;;4977839;28;20025;-77
2023/05/28 01:22:16;;;;;;;9.40;5.43;;;;;;;;;;4975987;28;20034;-76
2023/05/28 01:24:44;;;;;;;10.98;5.35;;;;;;;;;;4993890;28;20467;-76
2023/05/28 01:27:11;;;;;;;10.73;5.32;;;;;;;;;;5005214;28;20072;-77
2023/05/28 01:29:36;;;;;;;10.02;5.03;;;;;;;;;;4982454;28;20372;-77
2023/05/28 01:32:02;;;;;;;8.95;4.97;;;;;;;;;;4987321;28;20021;-77
2023/05/28 01:34:28;;;;;;;10.18;5.00;;;;;;;;;;4975793;28;20026;-77
2023/05/28 01:37:01;;;;;;;8.40;4.72;;;;;;;;;;4975089;28;20045;-77
2023/05/28 01:39:30;;;;;;;9.13;4.63;;;;;;;;;;4968652;28;20022;-77
2023/05/28 01:41:57;;;;;;;10.25;4.57;;;;;;;;;;4976864;28;20125;-76
2023/05/28 01:44:23;;;;;;;9.65;4.63;;;;;;;;;;4970565;28;20030;-77
2023/05/28 01:46:52;;;;;;;7.85;4.35;;;;;;;;;;4928684;28;1096959;-77
2023/05/28 01:49:19;;;;;;;8.43;4.43;;;;;;;;;;4991762;28;20053;-77
2023/05/28 01:51:44;;;;;;;10.13;4.70;;;;;;;;;;4984655;28;20029;-77
2023/05/28 01:54:10;;;;;;;9.93;4.80;;;;;;;;;;5004020;28;20022;-77
2023/05/28 01:56:35;;;;;;;9.05;4.40;;;;;;;;;;4994215;28;20356;-76
2023/05/28 01:59:02;;;;;;;10.38;4.95;;;;;;;;;;4996454;28;20027;-77
2023/05/28 02:01:32;;;;;;;8.98;4.60;;;;;;;;;;4999667;28;20029;-77
2023/05/28 02:03:59;;;;;;;10.23;4.57;;;;;;;;;;4979332;28;20036;-77
2023/05/28 02:06:27;;;;;;;8.20;4.05;;;;;;;;;;5000024;28;20120;-77
2023/05/28 02:08:53;;;;;;;7.93;4.70;;;;;;;;;;4981317;28;20391;-77
2023/05/28 02:11:18;;;;;;;9.65;4.47;;;;;;;;;;5003376;28;20030;-77
2023/05/28 02:13:44;;;;;;;10.00;4.95;;;;;;;;;;4979746;28;20117;-77
2023/05/28 02:16:10;;;;;;;6.60;4.00;;;;;;;;;;4994399;28;20036;-76
2023/05/28 02:18:37;;;;;;;11.30;5.07;;;;;;;;;;4989721;28;20049;-77
2023/05/28 02:21:06;;;;;;;9.55;4.40;;;;;;;;;;4973827;28;20034;-77
2023/05/28 02:23:31;;;;;;;9.70;4.40;;;;;;;;;;4965885;28;20041;-76
2023/05/28 02:25:56;;;;;;;8.50;4.05;;;;;;;;;;4990407;28;20034;-77
2023/05/28 02:28:22;;;;;;;9.43;4.65;;;;;;;;;;4976284;28;20479;-77
2023/05/28 02:30:47;;;;;;;10.77;4.63;;;;;;;;;;4996342;28;20479;-76
2023/05/28 02:33:12;;;;;;;11.90;4.50;;;;;;;;;;4978108;28;20418;-76
2023/05/28 02:35:38;;;;;;;10.68;4.45;;;;;;;;;;4991079;28;20033;-76
2023/05/28 02:38:03;;;;;;;10.18;4.28;;;;;;;;;;4996023;28;20041;-77
2023/05/28 02:40:28;;;;;;;10.45;4.45;;;;;;;;;;4993642;28;20034;-77
2023/05/28 02:42:54;;;;;;;10.27;4.18;;;;;;;;;;4996723;28;20030;-77
2023/05/28 02:45:19;;;;;;;7.95;4.28;;;;;;;;;;4974062;28;20037;-77
2023/05/28 02:47:45;;;;;;;8.05;4.50;;;;;;;;;;4972039;28;20421;-77
2023/05/28 02:50:10;;;;;;;11.15;4.15;;;;;;;;;;4974071;28;20030;-77
2023/05/28 02:52:35;;;;;;;8.40;3.83;;;;;;;;;;4978762;28;20030;-77
2023/05/28 02:55:02;;;;;;;8.27;4.13;;;;;;;;;;4993725;28;20029;-77
2023/05/28 02:57:27;;;;;;;10.27;4.57;;;;;;;;;;4997578;28;20021;-76
2023/05/28 02:59:52;;;;;;;9.52;4.05;;;;;;;;;;4975497;28;20467;-77
2023/05/28 03:02:18;;;;;;;8.13;4.35;;;;;;;;;;4991644;28;20030;-77
2023/05/28 03:04:43;;;;;;;11.77;4.43;;;;;;;;;;4972270;28;20034;-77
2023/05/28 03:07:08;;;;;;;10.38;4.18;;;;;;;;;;4996084;28;20027;-77
2023/05/28 03:09:37;;;;;;;13.73;4.80;;;;;;;;;;4991155;28;20026;-76
2023/05/28 03:12:02;;;;;;;9.68;5.00;;;;;;;;;;4995093;28;20482;-76
2023/05/28 03:14:28;;;;;;;11.00;3.90;;;;;;;;;;4991494;28;20033;-76
2023/05/28 03:16:53;;;;;;;11.35;4.20;;;;;;;;;;4992703;28;20029;-77
2023/05/28 03:19:18;;;;;;;12.05;4.25;;;;;;;;;;4995574;28;20054;-77
2023/05/28 03:21:44;;;;;;;9.85;4.40;;;;;;;;;;4995583;28;20033;-77
2023/05/28 03:24:09;;;;;;;9.25;3.95;;;;;;;;;;4984981;28;20474;-77
2023/05/28 03:26:36;;;;;;;10.60;4.13;;;;;;;;;;4991239;28;20399;-76
2023/05/28 03:29:01;;;;;;;12.27;4.93;;;;;;;;;;4987649;28;20033;-77
2023/05/28 03:31:28;;;;;;;12.32;4.80;;;;;;;;;;4983115;28;20030;-77
2023/05/28 03:33:54;;;;;;;9.50;4.82;;;;;;;;;;4993543;28;20063;-77
2023/05/28 03:36:19;;;;;;;11.77;4.70;;;;;;;;;;4985796;28;20478;-77
2023/05/28 03:38:45;;;;;;;9.55;4.25;;;;;;;;;;4983705;28;20029;-76
2023/05/28 03:41:10;;;;;;;8.88;4.47;;;;;;;;;;5005659;28;20457;-77
2023/05/28 03:43:36;;;;;;;8.55;4.13;;;;;;;;;;4989083;28;20037;-76
2023/05/28 03:46:02;;;;;;;8.10;4.45;;;;;;;;;;4999712;28;20030;-77
2023/05/28 03:48:27;;;;;;;11.18;4.43;;;;;;;;;;4975329;28;20470;-76
2023/05/28 03:50:52;;;;;;;8.35;4.22;;;;;;;;;;5000980;28;20029;-76
2023/05/28 03:53:18;;;;;;;9.82;4.13;;;;;;;;;;5000166;28;20450;-76
2023/05/28 03:55:43;;;;;;;9.23;4.15;;;;;;;;;;4997156;28;20041;-76
2023/05/28 03:58:11;;;;;;;8.35;4.15;;;;;;;;;;4981099;28;20474;-77
2023/05/28 04:00:36;;;;;;;8.50;4.40;;;;;;;;;;4979654;28;20504;-77
2023/05/28 04:03:03;;;;;;;8.85;4.43;;;;;;;;;;4991936;28;20054;-76
2023/05/28 04:05:28;;;;;;;10.45;4.50;;;;;;;;;;4990603;28;20054;-76
2023/05/28 04:07:53;;;;;;;11.00;4.53;;;;;;;;;;4996455;28;20042;-76
2023/05/28 04:10:19;;;;;;;10.15;4.10;;;;;;;;;;4984266;28;20026;-76
2023/05/28 04:12:44;;;;;;;10.38;4.28;;;;;;;;;;4993468;28;20475;-77
2023/05/28 04:15:10;;;;;;;8.30;4.10;;;;;;;;;;4986569;28;20368;-76
2023/05/28 04:17:36;;;;;;;7.65;4.05;;;;;;;;;;5002909;28;20375;-77
2023/05/28 04:20:04;;;;;;;7.65;4.00;;;;;;;;;;4991974;28;20053;-76
2023/05/28 04:22:29;;;;;;;8.25;4.28;;;;;;;;;;4992018;28;20026;-77
2023/05/28 04:24:57;;;;;;;11.93;4.40;;;;;;;;;;4992106;28;20030;-76
2023/05/28 04:27:23;;;;;;;7.82;4.15;;;;;;;;;;5001806;28;20334;-77
2023/05/28 04:29:49;;;;;;;10.60;4.28;;;;;;;;;;4980478;28;20399;-76
2023/05/28 04:32:14;;;;;;;9.43;4.13;;;;;;;;;;4979365;28;20076;-76
2023/05/28 04:34:42;;;;;;;12.45;4.88;;;;;;;;;;4997178;28;20057;-76
2023/05/28 04:37:08;;;;;;;11.20;4.53;;;;;;;;;;4982967;28;20022;-76
2023/05/28 04:39:34;;;;;;;10.88;4.43;;;;;;;;;;4994198;28;20029;-77
2023/05/28 04:42:03;;;;;;;8.27;4.10;;;;;;;;;;5002811;28;20115;-76
2023/05/28 04:44:30;;;;;;;9.88;4.38;;;;;;;;;;4972928;28;20030;-76
2023/05/28 04:46:58;;;;;;;7.47;4.13;;;;;;;;;;4972426;28;20113;-76
2023/05/28 04:49:24;;;;;;;9.63;4.10;;;;;;;;;;4984832;28;20387;-77
2023/05/28 04:51:50;;;;;;;11.32;4.50;;;;;;;;;;4978696;28;20036;-77
2023/05/28 04:54:15;;;;;;;7.65;4.22;;;;;;;;;;4973534;28;20224;-76
2023/05/28 04:56:40;;;;;;;9.18;4.80;;;;;;;;;;4995938;28;20023;-77
2023/05/28 04:59:09;;;;;;;9.10;4.00;;;;;;;;;;5000736;28;20025;-76
2023/05/28 05:01:38;;;;;;;12.27;4.80;;;;;;;;;;4979959;28;20037;-76
2023/05/28 05:04:04;;;;;;;9.07;4.07;;;;;;;;;;4988722;28;20026;-76
2023/05/28 05:06:30;;;;;;;10.10;4.43;;;;;;;;;;4985747;28;20545;-76
2023/05/28 05:08:55;;;;;;;9.52;4.70;;;;;;;;;;4992295;28;20030;-76
2023/05/28 05:11:21;;;;;;;11.40;4.82;;;;;;;;;;4993421;28;20494;-76
2023/05/28 05:13:47;;;;;;;11.50;4.65;;;;;;;;;;4992544;28;20108;-76
2023/05/28 05:16:12;;;;;;;10.30;4.68;;;;;;;;;;5005083;28;20030;-76
2023/05/28 05:18:37;;;;;;;11.77;4.78;;;;;;;;;;4981504;28;20359;-76
2023/05/28 05:21:03;;;;;;;11.27;4.10;;;;;;;;;;4983373;28;20039;-76
2023/05/28 05:23:29;;;;;;;12.80;5.00;;;;;;;;;;4991763;28;20030;-77
2023/05/28 05:25:54;;;;;;;10.18;4.47;;;;;;;;;;4988047;28;20026;-76
2023/05/28 05:28:19;;;;;;;12.93;4.75;;;;;;;;;;4989109;28;20030;-76
2023/05/28 05:30:45;;;;;;;13.95;4.53;;;;;;;;;;5002047;28;20113;-76
2023/05/28 05:33:10;;;;;;;11.95;4.65;;;;;;;;;;4976944;28;20033;-76
2023/05/28 05:35:35;;;;;;;7.80;4.20;;;;;;;;;;4987439;28;20391;-76
2023/05/28 05:38:01;;;;;;;10.13;4.72;;;;;;;;;;4995133;28;20065;-77
2023/05/28 05:40:27;;;;;;;10.65;4.75;;;;;;;;;;4993668;28;20030;-76
2023/05/28 05:42:53;;;;;;;13.73;4.85;;;;;;;;;;5000694;28;20030;-76
2023/05/28 05:45:18;;;;;;;11.88;4.70;;;;;;;;;;4994802;28;20545;-76
2023/05/28 05:47:44;;;;;;;10.27;4.78;;;;;;;;;;4982041;28;20027;-76
2023/05/28 05:50:11;;;;;;;11.80;4.88;;;;;;;;;;4986757;28;20034;-76
2023/05/28 05:52:37;;;;;;;10.07;4.60;;;;;;;;;;4989542;28;20034;-76
2023/05/28 05:55:02;;;;;;;11.27;4.38;;;;;;;;;;4976661;28;20022;-76
2023/05/28 05:57:28;;;;;;;8.77;4.32;;;;;;;;;;4994855;28;20077;-76
2023/05/28 05:59:54;;;;;;;12.20;4.85;;;;;;;;;;4968537;28;20030;-76
2023/05/28 06:02:19;;;;;;;9.55;3.95;;;;;;;;;;4988015;28;20030;-76
2023/05/28 06:04:45;;;;;;;14.38;4.78;;;;;;;;;;4989540;28;20065;-76
2023/05/28 06:07:10;;;;;;;11.85;4.40;;;;;;;;;;4977247;28;20034;-76
2023/05/28 06:09:36;;;;;;;10.80;4.88;;;;;;;;;;4988094;28;20022;-76
2023/05/28 06:12:01;;;;;;;9.35;4.45;;;;;;;;;;4992189;28;20037;-76
2023/05/28 06:14:27;;;;;;;9.82;4.40;;;;;;;;;;4995636;28;20510;-76
2023/05/28 06:16:53;;;;;;;9.73;4.70;;;;;;;;;;4975559;28;20504;-77
2023/05/28 06:19:18;;;;;;;11.60;4.82;;;;;;;;;;4999424;28;20031;-76
2023/05/28 06:21:44;;;;;;;8.63;4.70;;;;;;;;;;4978058;28;20061;-76
2023/05/28 06:24:09;;;;;;;10.25;4.50;;;;;;;;;;4974511;28;20030;-77
2023/05/28 06:26:35;;;;;;;12.38;4.57;;;;;;;;;;4968889;28;20018;-77
2023/05/28 06:29:00;;;;;;;9.55;4.60;;;;;;;;;;4976249;28;20394;-76
2023/05/28 06:31:25;;;;;;;9.25;4.20;;;;;;;;;;4989417;28;20382;-76
2023/05/28 06:33:51;;;;;;;11.70;5.03;;;;;;;;;;4990695;28;20038;-77
2023/05/28 06:36:17;;;;;;;10.82;4.90;;;;;;;;;;4985884;28;20680;-76
2023/05/28 06:38:43;;;;;;;9.13;4.63;;;;;;;;;;4980113;28;20049;-76
2023/05/28 06:41:08;;;;;;;12.48;5.30;;;;;;;;;;4970220;28;20053;-76
2023/05/28 06:43:33;;;;;;;10.43;5.10;;;;;;;;;;4982784;28;20057;-76
2023/05/28 06:45:59;;;;;;;14.60;5.63;;;;;;;;;;4965925;28;20469;-77
2023/05/28 06:48:24;;;;;;;10.70;4.40;;;;;;;;;;4989538;28;20050;-76
2023/05/28 06:50:50;;;;;;;9.07;4.80;;;;;;;;;;4991456;28;20046;-76
2023/05/28 06:53:15;;;;;;;9.05;4.85;;;;;;;;;;4969776;28;20046;-76
2023/05/28 06:55:40;;;;;;;8.60;4.60;;;;;;;;;;4991369;28;20043;-76
2023/05/28 06:58:06;;;;;;;10.90;4.80;;;;;;;;;;4988258;28;20019;-76
2023/05/28 07:00:31;;;;;;;12.77;5.78;;;;;;;;;;4972702;28;20140;-77
2023/05/28 07:02:56;;;;;;;12.82;5.80;;;;;;;;;;4984081;28;20034;-76
2023/05/28 07:05:22;;;;;;;11.75;6.00;;;;;;;;;;4992416;28;20339;-76
2023/05/28 07:07:47;;;;;;;15.63;5.70;;;;;;;;;;5007796;28;20029;-76
2023/05/28 07:10:13;;;;;;;13.45;6.30;;;;;;;;;;4975216;28;20427;-76
2023/05/28 07:12:38;;;;;;;11.95;5.53;;;;;;;;;;4981804;28;20189;-77
2023/05/28 07:15:06;;;;;;;11.90;5.53;;;;;;;;;;4973395;28;20030;-76
2023/05/28 07:17:31;;;;;;;11.88;5.78;;;;;;;;;;4988624;28;20049;-76
2023/05/28 07:19:57;;;;;;;11.95;5.40;;;;;;;;;;4997154;28;20037;-76
2023/05/28 07:22:23;;;;;;;13.23;5.90;;;;;;;;;;4999093;28;20026;-76
2023/05/28 07:24:49;;;;;;;11.90;6.07;;;;;;;;;;5000203;28;20103;-76
2023/05/28 07:27:14;;;;;;;13.77;5.05;;;;;;;;;;4991195;28;20070;-77
2023/05/28 07:29:40;;;;;;;9.98;5.18;;;;;;;;;;4997352;28;20030;-76
2023/05/28 07:32:05;;;;;;;10.82;5.05;;;;;;;;;;4989856;28;20483;-76
2023/05/28 07:34:31;;;;;;;13.85;5.80;;;;;;;;;;4997487;28;20027;-75
2023/05/28 07:36:57;;;;;;;12.20;5.28;;;;;;;;;;4973047;28;20413;-77
2023/05/28 07:39:22;;;;;;;10.70;5.10;;;;;;;;;;4966789;28;20072;-77
2023/05/28 07:41:48;;;;;;;9.85;5.38;;;;;;;;;;4988718;28;20037;-77
2023/05/28 07:44:15;;;;;;;12.98;5.60;;;;;;;;;;4972215;28;20471;-77
2023/05/28 07:46:40;;;;;;;12.18;5.15;;;;;;;;;;4972033;28;20044;-77
2023/05/28 07:49:06;;;;;;;11.20;4.80;;;;;;;;;;4972578;28;20027;-77
2023/05/28 07:51:32;;;;;;;10.25;5.20;;;;;;;;;;4983355;28;20030;-77
2023/05/28 07:53:57;;;;;;;10.00;4.97;;;;;;;;;;4988963;28;20454;-77
2023/05/28 07:56:23;;;;;;;13.27;5.35;;;;;;;;;;4988648;28;20101;-77
2023/05/28 07:58:48;;;;;;;10.30;4.63;;;;;;;;;;4979448;28;20474;-77
2023/05/28 08:01:14;;;;;;;12.18;5.00;;;;;;;;;;4967485;28;20117;-77
2023/05/28 08:03:40;;;;;;;10.80;4.70;;;;;;;;;;4968874;28;20422;-77
2023/05/28 08:06:06;;;;;;;11.15;4.22;;;;;;;;;;4978355;28;20467;-77
2023/05/28 08:08:32;;;;;;;10.43;4.65;;;;;;;;;;4976654;28;20081;-77
2023/05/28 08:10:57;;;;;;;10.30;4.63;;;;;;;;;;4989857;28;20104;-77
2023/05/28 08:13:23;;;;;;;10.20;4.47;;;;;;;;;;4974032;28;20066;-77
2023/05/28 08:15:48;;;;;;;12.48;4.90;;;;;;;;;;4991669;28;20030;-77
2023/05/28 08:18:13;;;;;;;12.77;4.40;;;;;;;;;;4990557;28;20034;-77
2023/05/28 08:20:39;;;;;;;11.18;4.13;;;;;;;;;;4975628;28;20125;-77
2023/05/28 08:23:05;;;;;;;10.60;4.03;;;;;;;;;;4992176;28;20502;-77
2023/05/28 08:25:32;;;;;;;9.68;4.20;;;;;;;;;;4974718;28;20025;-77
2023/05/28 08:27:57;;;;;;;9.38;4.22;;;;;;;;;;4977786;28;20026;-77
2023/05/28 08:30:23;;;;;;;10.32;3.85;;;;;;;;;;4997999;28;20090;-77
2023/05/28 08:32:48;;;;;;;8.98;3.97;;;;;;;;;;4992378;28;20033;-77
2023/05/28 08:35:14;;;;;;;7.65;3.33;;;;;;;;;;4995360;28;20502;-77
2023/05/28 08:37:39;;;;;;;7.15;3.67;;;;;;;;;;4979936;28;20057;-77
2023/05/28 08:40:08;;;;;;;9.88;3.78;;;;;;;;;;4974730;28;20116;-77
2023/05/28 08:42:34;;;;;;;8.25;3.95;;;;;;;;;;4976883;28;20433;-77
2023/05/28 08:45:00;;;;;;;10.30;3.72;;;;;;;;;;4995404;28;20374;-77
2023/05/28 08:47:31;;;;;;;11.30;3.75;;;;;;;;;;4996335;28;20474;-77
2023/05/28 08:50:02;;;;;;;8.98;4.13;;;;;;;;;;4977198;28;20065;-77
2023/05/28 08:52:31;;;;;;;11.68;4.18;;;;;;;;;;4972130;28;20038;-77
2023/05/28 08:54:57;;;;;;;7.72;3.72;;;;;;;;;;4972502;28;20029;-77
2023/05/28 08:57:23;;;;;;;8.57;3.22;;;;;;;;;;4991537;28;20030;-77
2023/05/28 08:59:48;;;;;;;11.80;3.83;;;;;;;;;;4976675;28;20030;-77
2023/05/28 09:02:14;;;;;;;9.85;3.42;;;;;;;;;;4986664;28;20070;-77
2023/05/28 09:04:40;;;;;;;8.30;2.95;;;;;;;;;;4988560;28;20030;-77
2023/05/28 09:07:05;;;;;;;8.32;3.08;;;;;;;;;;4971717;28;20022;-77
2023/05/28 09:09:31;;;;;;;8.15;3.03;;;;;;;;;;4978455;28;20034;-77
2023/05/28 09:12:05;;;;;;;9.50;3.08;;;;;;;;;;4992125;28;20022;-77
2023/05/28 09:14:36;;;;;;;8.18;3.17;;;;;;;;;;4995181;28;20030;-77
2023/05/28 09:17:02;;;;;;;7.97;3.05;;;;;;;;;;4996534;28;20069;-77
2023/05/28 09:19:28;;;;;;;9.52;3.20;;;;;;;;;;4994606;28;20037;-77
2023/05/28 09:21:56;;;;;;;10.65;3.22;;;;;;;;;;4994253;28;20073;-77
2023/05/28 09:24:22;;;;;;;8.25;3.00;;;;;;;;;;4978463;28;20056;-77
2023/05/28 09:26:48;;;;;;;6.68;2.58;;;;;;;;;;4995141;28;20034;-77
2023/05/28 09:29:14;;;;;;;8.68;3.00;;;;;;;;;;4984853;28;20434;-77
2023/05/28 09:31:39;;;;;;;7.20;2.90;;;;;;;;;;4985316;28;20431;-78
2023/05/28 09:34:05;;;;;;;7.18;3.25;;;;;;;;;;4991975;28;20017;-77
2023/05/28 09:36:31;;;;;;;8.20;2.92;;;;;;;;;;4977507;28;20030;-77
2023/05/28 09:38:57;;;;;;;6.28;2.83;;;;;;;;;;4988747;28;20037;-77
2023/05/28 09:41:24;;;;;;;10.38;2.70;;;;;;;;;;4993375;28;20026;-78
2023/05/28 09:43:57;;;;;;;7.90;2.97;;;;;;;;;;4977132;28;20391;-78
2023/05/28 09:46:28;;;;;;;10.60;3.30;;;;;;;;;;4962975;28;20061;-77
2023/05/28 09:48:53;;;;;;;8.05;2.88;;;;;;;;;;4996720;28;20388;-77
2023/05/28 09:51:20;;;;;;;8.25;2.92;;;;;;;;;;4979949;28;20045;-77
2023/05/28 09:53:49;;;;;;;7.88;2.75;;;;;;;;;;4980484;28;20038;-78
2023/05/28 09:56:14;;;;;;;7.72;3.28;;;;;;;;;;4993373;28;20061;-78
2023/05/28 09:58:44;;;;;;;7.72;3.00;;;;;;;;;;4991537;28;20175;-78
2023/05/28 10:01:14;;;;;;;7.68;2.97;;;;;;;;;;4978511;28;20034;-78
2023/05/28 10:03:48;;;;;;;8.40;2.50;;;;;;;;;;4979780;28;20034;-78
2023/05/28 10:06:18;;;;;;;6.78;2.75;;;;;;;;;;4984884;28;20030;-77
2023/05/28 10:08:49;;;;;;;6.70;2.80;;;;;;;;;;4997061;28;20026;-77
2023/05/28 10:11:18;;;;;;;7.88;2.60;;;;;;;;;;4976664;28;20049;-78
2023/05/28 10:13:44;;;;;;;7.13;2.75;;;;;;;;;;4978472;28;20116;-78
2023/05/28 10:16:09;;;;;;;6.85;2.45;;;;;;;;;;4994796;28;20061;-78
2023/05/28 10:18:35;;;;;;;7.47;2.50;;;;;;;;;;4975425;28;20497;-77
2023/05/28 10:21:01;;;;;;;4.97;2.33;;;;;;;;;;4980118;28;20030;-78
2023/05/28 10:23:27;;;;;;;5.15;2.00;;;;;;;;;;4989732;28;20034;-78
2023/05/28 10:25:54;;;;;;;7.55;2.50;;;;;;;;;;4987801;28;20042;-78
2023/05/28 10:28:21;;;;;;;7.28;2.40;;;;;;;;;;4998576;28;20498;-78
2023/05/28 10:31:00;;;;;;;6.50;2.75;;;;;;;;;;4976118;28;20112;-77
2023/05/28 10:33:25;;;;;;;5.85;2.55;;;;;;;;;;4994174;28;20403;-78
2023/05/28 10:36:00;;;;;;;9.50;3.22;;;;;;;;;;4967555;28;20045;-78
2023/05/28 10:38:27;;;;;;;6.82;2.70;;;;;;;;;;4997872;28;20110;-78
2023/05/28 10:40:59;;;;;;;7.82;2.80;;;;;;;;;;4971334;28;20068;-78
2023/05/28 10:43:45;;;;;;;7.47;2.80;;;;;;;;;;4989999;28;20446;-78
2023/05/28 10:46:29;;;;;;;7.28;2.28;;;;;;;;;;4991935;28;20038;-78
2023/05/28 10:49:12;;;;;;;4.72;2.20;;;;;;;;;;4998232;28;20034;-78
2023/05/28 10:51:59;;;;;;;5.80;2.38;;;;;;;;;;4992150;28;20034;-78
2023/05/28 10:54:37;;;;;;;6.70;2.50;;;;;;;;;;4997599;28;20581;-77
2023/05/28 10:57:10;;;;;;;7.32;2.95;;;;;;;;;;5001937;28;20398;-77
2023/05/28 11:00:01;;;;;;;6.82;2.47;;;;;;;;;;4978381;28;20026;-77
2023/05/28 11:02:28;;;;;;;7.75;2.60;;;;;;;;;;4993592;28;20466;-77
2023/05/28 11:04:55;;;;;;;5.90;2.60;;;;;;;;;;4982632;28;20446;-77
2023/05/28 11:07:22;;;;;;;6.40;2.70;;;;;;;;;;4998122;28;20360;-77
2023/05/28 11:09:51;;;;;;;6.75;2.67;;;;;;;;;;4990448;28;20533;-77
2023/05/28 11:12:19;;;;;;;5.68;2.50;;;;;;;;;;4975414;28;20038;-77
2023/05/28 11:14:44;;;;;;;6.75;2.55;;;;;;;;;;4993794;28;20499;-77
2023/05/28 11:17:11;;;;;;;7.13;2.72;;;;;;;;;;4991408;28;20036;-77
2023/05/28 11:19:47;;;;;;;7.05;2.60;;;;;;;;;;4980647;28;20490;-76
2023/05/28 11:22:14;;;;;;;6.10;2.10;;;;;;;;;;4970296;28;21827;-77
2023/05/28 11:24:50;;;;;;;6.78;2.42;;;;;;;;;;4993258;28;20030;-77
2023/05/28 11:27:15;;;;;;;6.03;2.40;;;;;;;;;;4978774;28;20030;-76
2023/05/28 11:29:41;;;;;;;6.65;2.80;;;;;;;;;;4984138;28;20475;-76
2023/05/28 11:32:06;;;;;;;6.75;2.65;;;;;;;;;;4997878;28;20026;-77
2023/05/28 11:34:32;;;;;;;7.38;2.88;;;;;;;;;;4970105;28;20022;-77
2023/05/28 11:36:59;;;;;;;6.85;3.13;;;;;;;;;;4986580;28;20367;-77
2023/05/28 11:39:24;;;;;;;6.30;2.75;;;;;;;;;;4973447;28;20061;-77
2023/05/28 11:41:50;;;;;;;6.55;2.85;;;;;;;;;;4991748;28;20034;-77
2023/05/28 11:44:22;;;;;;;7.07;2.65;;;;;;;;;;4974061;28;20030;-78
2023/05/28 11:46:56;;;;;;;8.35;2.78;;;;;;;;;;4977588;28;20571;-77
2023/05/28 11:49:22;;;;;;;8.43;2.90;;;;;;;;;;4967624;28;20070;-77
2023/05/28 11:51:50;;;;;;;8.93;3.00;;;;;;;;;;4978378;28;20049;-77
2023/05/28 11:54:16;;;;;;;7.82;2.83;;;;;;;;;;4972201;28;20156;-77
2023/05/28 11:56:41;;;;;;;9.48;2.95;;;;;;;;;;4980414;28;20050;-77
2023/05/28 11:59:06;;;;;;;7.22;2.72;;;;;;;;;;4983522;28;20036;-77
2023/05/28 12:01:35;;;;;;;11.10;2.70;;;;;;;;;;4991689;28;20050;-77
2023/05/28 12:04:07;;;;;;;6.70;2.78;;;;;;;;;;4981536;28;20486;-76
2023/05/28 12:06:33;;;;;;;5.65;2.65;;;;;;;;;;4968138;28;20092;-77
2023/05/28 12:09:08;;;;;;;6.32;2.50;;;;;;;;;;4972600;28;20074;-77
2023/05/28 12:11:34;;;;;;;7.78;2.55;;;;;;;;;;4982389;28;20037;-77
2023/05/28 12:14:11;;;;;;;7.97;2.70;;;;;;;;;;4963756;28;20489;-77
2023/05/28 12:16:47;;;;;;;8.57;2.60;;;;;;;;;;4969764;28;20034;-77
2023/05/28 12:19:15;;;;;;;7.10;2.58;;;;;;;;;;4988794;28;20109;-77
2023/05/28 12:21:41;;;;;;;8.20;2.78;;;;;;;;;;4977897;28;20105;-77
2023/05/28 12:24:15;;;;;;;9.65;3.03;;;;;;;;;;4986957;28;20121;-77
2023/05/28 12:26:41;;;;;;;7.90;2.58;;;;;;;;;;4970296;28;20185;-77
2023/05/28 12:29:07;;;;;;;6.32;2.63;;;;;;;;;;4986954;28;20041;-77
2023/05/28 12:31:33;;;;;;;6.10;2.42;;;;;;;;;;4973944;28;20022;-77
2023/05/28 12:33:58;;;;;;;6.90;2.50;;;;;;;;;;4972596;28;20037;-77
2023/05/28 12:36:23;;;;;;;6.72;2.60;;;;;;;;;;4997986;28;20033;-77
2023/05/28 12:38:49;;;;;;;10.30;2.95;;;;;;;;;;4987490;28;20554;-77
2023/05/28 12:41:15;;;;;;;8.27;2.50;;;;;;;;;;4988661;28;20572;-77
2023/05/28 12:43:40;;;;;;;7.22;2.60;;;;;;;;;;4968524;28;20108;-76
2023/05/28 12:46:05;;;;;;;10.85;2.97;;;;;;;;;;4963308;28;20041;-77
2023/05/28 12:48:31;;;;;;;8.43;2.40;;;;;;;;;;4963250;28;20030;-77
2023/05/28 12:50:56;;;;;;;7.07;2.65;;;;;;;;;;4965118;28;20403;-77
2023/05/28 12:53:21;;;;;;;7.78;2.60;;;;;;;;;;4972461;28;20030;-77
2023/05/28 12:55:47;;;;;;;6.60;2.72;;;;;;;;;;4966879;28;20037;-77
2023/05/28 12:58:12;;;;;;;8.60;2.42;;;;;;;;;;4982139;28;20026;-79
2023/05/28 13:00:38;;;;;;;7.25;2.83;;;;;;;;;;4958994;28;20038;-77
2023/05/28 13:03:03;;;;;;;7.10;2.67;;;;;;;;;;4979115;28;20041;-77
2023/05/28 13:05:32;;;;;;;8.13;2.72;;;;;;;;;;4982231;28;20030;-77
2023/05/28 13:07:58;;;;;;;8.48;3.35;;;;;;;;;;4968974;28;20035;-77
2023/05/28 13:10:24;;;;;;;5.88;2.58;;;;;;;;;;4960800;28;20030;-76
2023/05/28 13:12:49;;;;;;;7.72;2.40;;;;;;;;;;4980835;28;20026;-77
2023/05/28 13:15:15;;;;;;;7.78;2.53;;;;;;;;;;4986284;28;20657;-76
2023/05/28 13:17:40;;;;;;;8.32;2.55;;;;;;;;;;4977847;28;20475;-76
2023/05/28 13:20:09;;;;;;;7.07;3.20;;;;;;;;;;4981911;28;20037;-77
2023/05/28 13:22:36;;;;;;;7.15;2.70;;;;;;;;;;4982878;28;20081;-76
2023/05/28 13:25:03;;;;;;;8.18;2.60;;;;;;;;;;4965032;28;20061;-76
2023/05/28 13:27:28;;;;;;;9.30;2.72;;;;;;;;;;4985099;28;20030;-76
2023/05/28 13:29:53;;;;;;;7.43;2.65;;;;;;;;;;4985244;28;20034;-77
2023/05/28 13:32:19;;;;;;;6.60;2.80;;;;;;;;;;4984152;28;20037;-77
2023/05/28 13:34:45;;;;;;;7.97;2.83;;;;;;;;;;4966713;28;20044;-76
2023/05/28 13:37:10;;;;;;;5.88;2.35;;;;;;;;;;4979952;28;20075;-77
2023/05/28 13:39:36;;;;;;;5.97;2.50;;;;;;;;;;4978143;28;20030;-77
2023/05/28 13:42:03;;;;;;;5.65;2.50;;;;;;;;;;4961086;28;20083;-77
2023/05/28 13:44:29;;;;;;;6.53;2.80;;;;;;;;;;4980524;28;20618;-77
2023/05/28 13:46:54;;;;;;;8.52;2.60;;;;;;;;;;4962616;28;20026;-77
2023/05/28 13:49:20;;;;;;;6.75;2.67;;;;;;;;;;4960417;28;20121;-77
2023/05/28 13:51:46;;;;;;;6.47;2.65;;;;;;;;;;4960324;28;20224;-77
2023/05/28 13:54:12;;;;;;;7.43;2.80;;;;;;;;;;4964056;28;20572;-77
2023/05/28 13:56:37;;;;;;;7.97;3.08;;;;;;;;;;4962326;28;20568;-77
2023/05/28 13:59:03;;;;;;;7.82;2.90;;;;;;;;;;4976969;28;20441;-77
2023/05/28 14:01:28;;;;;;;6.00;3.00;;;;;;;;;;4982731;28;20057;-77
2023/05/28 14:03:53;;;;;;;7.60;3.28;;;;;;;;;;4977773;28;20038;-77
2023/05/28 14:06:19;;;;;;;9.32;3.10;;;;;;;;;;4966202;28;20422;-77
2023/05/28 14:08:44;;;;;;;8.98;2.80;;;;;;;;;;4983961;28;20375;-77
2023/05/28 14:11:10;;;;;;;5.75;2.60;;;;;;;;;;4982716;28;20030;-77
2023/05/28 14:13:35;;;;;;;6.03;2.75;;;;;;;;;;4981867;28;20519;-77
2023/05/28 14:16:01;;;;;;;8.70;2.92;;;;;;;;;;4960167;28;20026;-77
2023/05/28 14:18:26;;;;;;;7.40;2.95;;;;;;;;;;4979237;28;20479;-77
2023/05/28 14:20:52;;;;;;;10.48;3.22;;;;;;;;;;4977039;28;20069;-77
2023/05/28 14:23:17;;;;;;;7.32;3.28;;;;;;;;;;4963721;28;20034;-77
2023/05/28 14:25:43;;;;;;;9.38;3.40;;;;;;;;;;4962767;28;20116;-77
2023/05/28 14:28:08;;;;;;;5.28;2.67;;;;;;;;;;4980815;28;20107;-76
2023/05/28 14:30:33;;;;;;;7.57;3.28;;;;;;;;;;4964756;28;20038;-76
2023/05/28 14:32:59;;;;;;;7.78;3.00;;;;;;;;;;4965744;28;20037;-77
2023/05/28 14:35:24;;;;;;;10.02;3.17;;;;;;;;;;4983732;28;20029;-76